sensor_id;sensor_type;location;lat;lon;timestamp;P1;durP1;ratioP1;P2;durP2;ratioP2
8675;SDS011;4375;52.486;13.424;2023-11-21T00:00:27;18.20;;;5.03;;
8675;SDS011;4375;52.486;13.424;2023-11-21T00:02:53;21.33;;;6.90;;
8675;SDS011;4375;52.486;13.424;2023-11-21T00:05:18;23.00;;;6.90;;
8675;SDS011;4375;52.486;13.424;2023-11-21T00:07:44;23.30;;;7.40;;
8675;SDS011;4375;52.486;13.424;2023-11-21T00:10:10;23.23;;;7.53;;
8675;SDS011;4375;52.486;13.424;2023-11-21T00:12:36;23.43;;;8.00;;
8675;SDS011;4375;52.486;13.424;2023-11-21T00:15:03;26.40;;;9.70;;
8675;SDS011;4375;52.486;13.424;2023-11-21T00:17:35;23.87;;;8.73;;
8675;SDS011;4375;52.486;13.424;2023-11-21T00:20:02;30.03;;;11.63;;
8675;SDS011;4375;52.486;13.424;2023-11-21T00:22:31;25.97;;;11.03;;
8675;SDS011;4375;52.486;13.424;2023-11-21T00:24:57;27.60;;;10.33;;
8675;SDS011;4375;52.486;13.424;2023-11-21T00:27:23;29.53;;;10.83;;
8675;SDS011;4375;52.486;13.424;2023-11-21T00:29:48;31.00;;;11.00;;
8675;SDS011;4375;52.486;13.424;2023-11-21T00:32:14;32.80;;;12.77;;
8675;SDS011;4375;52.486;13.424;2023-11-21T00:34:39;31.90;;;12.07;;
8675;SDS011;4375;52.486;13.424;2023-11-21T00:37:05;35.77;;;14.00;;
8675;SDS011;4375;52.486;13.424;2023-11-21T00:39:32;36.77;;;13.77;;
8675;SDS011;4375;52.486;13.424;2023-11-21T00:42:00;39.77;;;15.80;;
8675;SDS011;4375;52.486;13.424;2023-11-21T00:44:25;38.07;;;14.23;;
8675;SDS011;4375;52.486;13.424;2023-11-21T00:46:51;35.37;;;14.50;;
8675;SDS011;4375;52.486;13.424;2023-11-21T00:49:17;37.93;;;14.50;;
8675;SDS011;4375;52.486;13.424;2023-11-21T00:51:43;38.77;;;16.47;;
8675;SDS011;4375;52.486;13.424;2023-11-21T00:54:08;44.40;;;17.07;;
8675;SDS011;4375;52.486;13.424;2023-11-21T00:56:34;43.80;;;16.53;;
8675;SDS011;4375;52.486;13.424;2023-11-21T00:59:00;43.63;;;16.27;;
8675;SDS011;4375;52.486;13.424;2023-11-21T01:01:25;44.50;;;16.80;;
8675;SDS011;4375;52.486;13.424;2023-11-21T01:03:51;41.87;;;17.20;;
8675;SDS011;4375;52.486;13.424;2023-11-21T01:06:16;40.87;;;16.17;;
8675;SDS011;4375;52.486;13.424;2023-11-21T01:08:43;41.00;;;15.60;;
8675;SDS011;4375;52.486;13.424;2023-11-21T01:11:09;41.07;;;16.60;;
8675;SDS011;4375;52.486;13.424;2023-11-21T01:13:37;44.17;;;16.23;;
8675;SDS011;4375;52.486;13.424;2023-11-21T01:16:04;42.33;;;16.13;;
8675;SDS011;4375;52.486;13.424;2023-11-21T01:18:31;40.93;;;16.50;;
8675;SDS011;4375;52.486;13.424;2023-11-21T01:20:59;42.13;;;14.73;;
8675;SDS011;4375;52.486;13.424;2023-11-21T01:23:25;41.10;;;15.77;;
8675;SDS011;4375;52.486;13.424;2023-11-21T01:25:52;52.23;;;18.27;;
8675;SDS011;4375;52.486;13.424;2023-11-21T01:28:18;46.40;;;18.87;;
8675;SDS011;4375;52.486;13.424;2023-11-21T01:30:44;53.30;;;20.20;;
8675;SDS011;4375;52.486;13.424;2023-11-21T01:33:10;61.30;;;20.47;;
8675;SDS011;4375;52.486;13.424;2023-11-21T01:35:36;63.30;;;21.60;;
8675;SDS011;4375;52.486;13.424;2023-11-21T01:38:02;59.37;;;21.13;;
8675;SDS011;4375;52.486;13.424;2023-11-21T01:40:29;57.67;;;22.40;;
8675;SDS011;4375;52.486;13.424;2023-11-21T01:42:55;64.03;;;22.10;;
8675;SDS011;4375;52.486;13.424;2023-11-21T01:45:22;64.83;;;24.80;;
8675;SDS011;4375;52.486;13.424;2023-11-21T01:47:50;69.07;;;23.00;;
8675;SDS011;4375;52.486;13.424;2023-11-21T01:50:16;64.23;;;22.73;;
8675;SDS011;4375;52.486;13.424;2023-11-21T01:52:43;57.07;;;20.00;;
8675;SDS011;4375;52.486;13.424;2023-11-21T01:55:10;63.00;;;21.13;;
8675;SDS011;4375;52.486;13.424;2023-11-21T01:57:37;55.90;;;17.67;;
8675;SDS011;4375;52.486;13.424;2023-11-21T02:00:03;59.37;;;18.40;;
8675;SDS011;4375;52.486;13.424;2023-11-21T02:02:40;50.93;;;16.40;;
8675;SDS011;4375;52.486;13.424;2023-11-21T02:05:10;50.57;;;15.97;;
8675;SDS011;4375;52.486;13.424;2023-11-21T02:07:40;46.90;;;16.40;;
8675;SDS011;4375;52.486;13.424;2023-11-21T02:10:07;48.73;;;14.63;;
8675;SDS011;4375;52.486;13.424;2023-11-21T02:12:34;50.10;;;14.33;;
8675;SDS011;4375;52.486;13.424;2023-11-21T02:15:01;40.70;;;13.83;;
8675;SDS011;4375;52.486;13.424;2023-11-21T02:17:34;36.50;;;13.10;;
8675;SDS011;4375;52.486;13.424;2023-11-21T02:20:00;44.20;;;12.97;;
8675;SDS011;4375;52.486;13.424;2023-11-21T02:22:28;39.17;;;13.70;;
8675;SDS011;4375;52.486;13.424;2023-11-21T02:24:57;34.53;;;13.23;;
8675;SDS011;4375;52.486;13.424;2023-11-21T02:27:23;32.70;;;11.70;;
8675;SDS011;4375;52.486;13.424;2023-11-21T02:29:49;38.17;;;13.20;;
8675;SDS011;4375;52.486;13.424;2023-11-21T02:32:15;39.23;;;13.03;;
8675;SDS011;4375;52.486;13.424;2023-11-21T02:34:44;40.13;;;12.50;;
8675;SDS011;4375;52.486;13.424;2023-11-21T02:37:09;42.43;;;13.63;;
8675;SDS011;4375;52.486;13.424;2023-11-21T02:39:35;42.80;;;12.50;;
8675;SDS011;4375;52.486;13.424;2023-11-21T02:42:01;40.60;;;14.40;;
8675;SDS011;4375;52.486;13.424;2023-11-21T02:44:26;44.37;;;13.73;;
8675;SDS011;4375;52.486;13.424;2023-11-21T02:46:52;39.63;;;12.80;;
8675;SDS011;4375;52.486;13.424;2023-11-21T02:49:17;39.63;;;12.77;;
8675;SDS011;4375;52.486;13.424;2023-11-21T02:51:43;33.03;;;12.57;;
8675;SDS011;4375;52.486;13.424;2023-11-21T02:54:09;32.03;;;11.43;;
8675;SDS011;4375;52.486;13.424;2023-11-21T02:56:35;31.67;;;10.63;;
8675;SDS011;4375;52.486;13.424;2023-11-21T02:59:00;25.77;;;8.93;;
8675;SDS011;4375;52.486;13.424;2023-11-21T03:01:26;29.67;;;11.23;;
8675;SDS011;4375;52.486;13.424;2023-11-21T03:03:52;30.27;;;10.70;;
8675;SDS011;4375;52.486;13.424;2023-11-21T03:06:21;30.97;;;11.20;;
8675;SDS011;4375;52.486;13.424;2023-11-21T03:08:47;31.30;;;11.17;;
8675;SDS011;4375;52.486;13.424;2023-11-21T03:11:13;30.93;;;11.33;;
8675;SDS011;4375;52.486;13.424;2023-11-21T03:13:40;30.57;;;10.47;;
8675;SDS011;4375;52.486;13.424;2023-11-21T03:16:09;30.37;;;11.30;;
8675;SDS011;4375;52.486;13.424;2023-11-21T03:18:38;31.50;;;11.07;;
8675;SDS011;4375;52.486;13.424;2023-11-21T03:21:05;33.17;;;11.53;;
8675;SDS011;4375;52.486;13.424;2023-11-21T03:23:31;29.10;;;10.80;;
8675;SDS011;4375;52.486;13.424;2023-11-21T03:25:57;28.13;;;9.70;;
8675;SDS011;4375;52.486;13.424;2023-11-21T03:28:23;31.27;;;10.87;;
8675;SDS011;4375;52.486;13.424;2023-11-21T03:30:49;32.93;;;11.27;;
8675;SDS011;4375;52.486;13.424;2023-11-21T03:33:14;26.50;;;9.87;;
8675;SDS011;4375;52.486;13.424;2023-11-21T03:35:40;28.23;;;10.47;;
8675;SDS011;4375;52.486;13.424;2023-11-21T03:38:07;25.80;;;9.50;;
8675;SDS011;4375;52.486;13.424;2023-11-21T03:40:32;24.90;;;9.27;;
8675;SDS011;4375;52.486;13.424;2023-11-21T03:42:58;27.03;;;10.20;;
8675;SDS011;4375;52.486;13.424;2023-11-21T03:45:24;27.67;;;10.07;;
8675;SDS011;4375;52.486;13.424;2023-11-21T03:47:49;25.10;;;9.77;;
8675;SDS011;4375;52.486;13.424;2023-11-21T03:50:15;28.50;;;10.43;;
8675;SDS011;4375;52.486;13.424;2023-11-21T03:52:41;28.23;;;9.70;;
8675;SDS011;4375;52.486;13.424;2023-11-21T03:55:06;27.23;;;10.67;;
8675;SDS011;4375;52.486;13.424;2023-11-21T03:57:32;24.17;;;8.80;;
8675;SDS011;4375;52.486;13.424;2023-11-21T03:59:58;28.43;;;9.47;;
8675;SDS011;4375;52.486;13.424;2023-11-21T04:02:23;26.43;;;9.80;;
8675;SDS011;4375;52.486;13.424;2023-11-21T04:04:51;26.13;;;10.07;;
8675;SDS011;4375;52.486;13.424;2023-11-21T04:07:16;23.40;;;8.47;;
8675;SDS011;4375;52.486;13.424;2023-11-21T04:09:42;27.20;;;8.40;;
8675;SDS011;4375;52.486;13.424;2023-11-21T04:12:08;25.57;;;9.00;;
8675;SDS011;4375;52.486;13.424;2023-11-21T04:14:34;24.53;;;8.97;;
8675;SDS011;4375;52.486;13.424;2023-11-21T04:17:00;26.27;;;9.20;;
8675;SDS011;4375;52.486;13.424;2023-11-21T04:19:26;26.97;;;8.80;;
8675;SDS011;4375;52.486;13.424;2023-11-21T04:21:51;23.97;;;7.73;;
8675;SDS011;4375;52.486;13.424;2023-11-21T04:24:17;24.33;;;8.07;;
8675;SDS011;4375;52.486;13.424;2023-11-21T04:26:43;23.80;;;8.90;;
8675;SDS011;4375;52.486;13.424;2023-11-21T04:29:09;23.90;;;8.00;;
8675;SDS011;4375;52.486;13.424;2023-11-21T04:31:35;24.73;;;7.53;;
8675;SDS011;4375;52.486;13.424;2023-11-21T04:34:01;21.37;;;6.97;;
8675;SDS011;4375;52.486;13.424;2023-11-21T04:36:29;22.37;;;6.60;;
8675;SDS011;4375;52.486;13.424;2023-11-21T04:38:55;22.07;;;6.77;;
8675;SDS011;4375;52.486;13.424;2023-11-21T04:41:21;27.37;;;7.80;;
8675;SDS011;4375;52.486;13.424;2023-11-21T04:43:47;23.50;;;8.07;;
8675;SDS011;4375;52.486;13.424;2023-11-21T04:46:13;24.63;;;8.03;;
8675;SDS011;4375;52.486;13.424;2023-11-21T04:48:39;23.20;;;7.07;;
8675;SDS011;4375;52.486;13.424;2023-11-21T04:51:05;23.10;;;7.60;;
8675;SDS011;4375;52.486;13.424;2023-11-21T04:53:31;21.90;;;7.23;;
8675;SDS011;4375;52.486;13.424;2023-11-21T04:55:57;25.97;;;8.40;;
8675;SDS011;4375;52.486;13.424;2023-11-21T04:58:23;23.20;;;7.77;;
8675;SDS011;4375;52.486;13.424;2023-11-21T05:00:48;22.43;;;7.07;;
8675;SDS011;4375;52.486;13.424;2023-11-21T05:03:14;20.83;;;6.23;;
8675;SDS011;4375;52.486;13.424;2023-11-21T05:05:40;21.17;;;6.40;;
8675;SDS011;4375;52.486;13.424;2023-11-21T05:08:06;21.10;;;6.50;;
8675;SDS011;4375;52.486;13.424;2023-11-21T05:10:31;25.10;;;8.30;;
8675;SDS011;4375;52.486;13.424;2023-11-21T05:12:57;23.10;;;6.80;;
8675;SDS011;4375;52.486;13.424;2023-11-21T05:15:23;22.17;;;6.77;;
8675;SDS011;4375;52.486;13.424;2023-11-21T05:17:49;24.70;;;7.07;;
8675;SDS011;4375;52.486;13.424;2023-11-21T05:20:17;22.00;;;7.40;;
8675;SDS011;4375;52.486;13.424;2023-11-21T05:22:45;21.10;;;6.90;;
8675;SDS011;4375;52.486;13.424;2023-11-21T05:25:14;21.20;;;6.17;;
8675;SDS011;4375;52.486;13.424;2023-11-21T05:27:39;20.73;;;6.93;;
8675;SDS011;4375;52.486;13.424;2023-11-21T05:30:05;22.23;;;7.13;;
8675;SDS011;4375;52.486;13.424;2023-11-21T05:32:35;22.90;;;6.70;;
8675;SDS011;4375;52.486;13.424;2023-11-21T05:35:00;21.67;;;7.00;;
8675;SDS011;4375;52.486;13.424;2023-11-21T05:37:26;21.47;;;7.50;;
8675;SDS011;4375;52.486;13.424;2023-11-21T05:39:55;22.87;;;8.37;;
8675;SDS011;4375;52.486;13.424;2023-11-21T05:42:21;22.77;;;7.10;;
8675;SDS011;4375;52.486;13.424;2023-11-21T05:44:48;22.37;;;6.90;;
8675;SDS011;4375;52.486;13.424;2023-11-21T05:47:14;22.67;;;7.20;;
8675;SDS011;4375;52.486;13.424;2023-11-21T05:49:40;23.30;;;7.47;;
8675;SDS011;4375;52.486;13.424;2023-11-21T05:52:05;23.20;;;6.67;;
8675;SDS011;4375;52.486;13.424;2023-11-21T05:54:31;21.83;;;7.07;;
8675;SDS011;4375;52.486;13.424;2023-11-21T05:56:57;21.70;;;5.97;;
8675;SDS011;4375;52.486;13.424;2023-11-21T05:59:24;23.90;;;7.83;;
8675;SDS011;4375;52.486;13.424;2023-11-21T06:01:49;24.00;;;8.10;;
8675;SDS011;4375;52.486;13.424;2023-11-21T06:04:15;24.07;;;8.47;;
8675;SDS011;4375;52.486;13.424;2023-11-21T06:06:41;23.20;;;7.63;;
8675;SDS011;4375;52.486;13.424;2023-11-21T06:09:06;23.37;;;8.03;;
8675;SDS011;4375;52.486;13.424;2023-11-21T06:11:34;28.17;;;9.27;;
8675;SDS011;4375;52.486;13.424;2023-11-21T06:14:00;22.77;;;7.53;;
8675;SDS011;4375;52.486;13.424;2023-11-21T06:16:26;25.10;;;7.37;;
8675;SDS011;4375;52.486;13.424;2023-11-21T06:18:52;22.07;;;6.67;;
8675;SDS011;4375;52.486;13.424;2023-11-21T06:21:18;23.70;;;6.80;;
8675;SDS011;4375;52.486;13.424;2023-11-21T06:23:44;24.00;;;6.70;;
8675;SDS011;4375;52.486;13.424;2023-11-21T06:26:09;22.30;;;6.43;;
8675;SDS011;4375;52.486;13.424;2023-11-21T06:28:35;23.40;;;6.70;;
8675;SDS011;4375;52.486;13.424;2023-11-21T06:31:01;20.47;;;6.53;;
8675;SDS011;4375;52.486;13.424;2023-11-21T06:33:30;28.53;;;7.30;;
8675;SDS011;4375;52.486;13.424;2023-11-21T06:35:56;30.80;;;6.23;;
8675;SDS011;4375;52.486;13.424;2023-11-21T06:38:22;20.67;;;6.33;;
8675;SDS011;4375;52.486;13.424;2023-11-21T06:40:48;21.60;;;6.10;;
8675;SDS011;4375;52.486;13.424;2023-11-21T06:43:13;22.17;;;6.20;;
8675;SDS011;4375;52.486;13.424;2023-11-21T06:45:40;19.10;;;5.27;;
8675;SDS011;4375;52.486;13.424;2023-11-21T06:48:06;22.43;;;6.60;;
8675;SDS011;4375;52.486;13.424;2023-11-21T06:50:31;22.37;;;5.53;;
8675;SDS011;4375;52.486;13.424;2023-11-21T06:52:57;21.50;;;6.40;;
8675;SDS011;4375;52.486;13.424;2023-11-21T06:55:23;22.73;;;7.40;;
8675;SDS011;4375;52.486;13.424;2023-11-21T06:57:48;22.10;;;5.90;;
8675;SDS011;4375;52.486;13.424;2023-11-21T07:00:17;22.23;;;6.00;;
8675;SDS011;4375;52.486;13.424;2023-11-21T07:02:43;24.53;;;7.17;;
8675;SDS011;4375;52.486;13.424;2023-11-21T07:05:09;19.03;;;5.30;;
8675;SDS011;4375;52.486;13.424;2023-11-21T07:07:36;21.13;;;6.70;;
8675;SDS011;4375;52.486;13.424;2023-11-21T07:10:02;20.87;;;6.23;;
8675;SDS011;4375;52.486;13.424;2023-11-21T07:12:31;20.60;;;6.20;;
8675;SDS011;4375;52.486;13.424;2023-11-21T07:14:57;22.57;;;7.00;;
8675;SDS011;4375;52.486;13.424;2023-11-21T07:17:23;20.10;;;5.77;;
8675;SDS011;4375;52.486;13.424;2023-11-21T07:19:49;23.37;;;5.77;;
8675;SDS011;4375;52.486;13.424;2023-11-21T07:22:15;20.63;;;6.03;;
8675;SDS011;4375;52.486;13.424;2023-11-21T07:24:47;22.90;;;6.10;;
8675;SDS011;4375;52.486;13.424;2023-11-21T07:27:15;18.23;;;4.73;;
8675;SDS011;4375;52.486;13.424;2023-11-21T07:29:41;20.57;;;5.27;;
8675;SDS011;4375;52.486;13.424;2023-11-21T07:32:06;21.17;;;5.60;;
8675;SDS011;4375;52.486;13.424;2023-11-21T07:34:34;20.13;;;6.10;;
8675;SDS011;4375;52.486;13.424;2023-11-21T07:37:00;20.63;;;5.50;;
8675;SDS011;4375;52.486;13.424;2023-11-21T07:39:26;23.70;;;6.80;;
8675;SDS011;4375;52.486;13.424;2023-11-21T07:41:52;20.80;;;5.13;;
8675;SDS011;4375;52.486;13.424;2023-11-21T07:44:17;21.17;;;6.00;;
8675;SDS011;4375;52.486;13.424;2023-11-21T07:46:44;22.00;;;7.30;;
8675;SDS011;4375;52.486;13.424;2023-11-21T07:49:10;19.30;;;5.20;;
8675;SDS011;4375;52.486;13.424;2023-11-21T07:51:36;22.23;;;4.97;;
8675;SDS011;4375;52.486;13.424;2023-11-21T07:54:02;19.50;;;5.30;;
8675;SDS011;4375;52.486;13.424;2023-11-21T07:56:28;18.43;;;5.10;;
8675;SDS011;4375;52.486;13.424;2023-11-21T07:58:53;19.47;;;5.23;;
8675;SDS011;4375;52.486;13.424;2023-11-21T08:01:19;19.40;;;5.60;;
8675;SDS011;4375;52.486;13.424;2023-11-21T08:03:44;20.30;;;5.47;;
8675;SDS011;4375;52.486;13.424;2023-11-21T08:06:10;19.10;;;4.97;;
8675;SDS011;4375;52.486;13.424;2023-11-21T08:08:37;20.87;;;5.93;;
8675;SDS011;4375;52.486;13.424;2023-11-21T08:11:02;18.47;;;4.57;;
8675;SDS011;4375;52.486;13.424;2023-11-21T08:13:28;19.87;;;5.43;;
8675;SDS011;4375;52.486;13.424;2023-11-21T08:15:55;23.30;;;6.37;;
8675;SDS011;4375;52.486;13.424;2023-11-21T08:18:26;19.90;;;4.80;;
8675;SDS011;4375;52.486;13.424;2023-11-21T08:20:54;18.87;;;4.80;;
8675;SDS011;4375;52.486;13.424;2023-11-21T08:23:20;21.97;;;5.50;;
8675;SDS011;4375;52.486;13.424;2023-11-21T08:25:50;21.97;;;5.53;;
8675;SDS011;4375;52.486;13.424;2023-11-21T08:28:16;21.37;;;5.73;;
8675;SDS011;4375;52.486;13.424;2023-11-21T08:30:42;22.77;;;6.30;;
8675;SDS011;4375;52.486;13.424;2023-11-21T08:33:09;23.53;;;5.83;;
8675;SDS011;4375;52.486;13.424;2023-11-21T08:35:36;25.00;;;6.67;;
8675;SDS011;4375;52.486;13.424;2023-11-21T08:38:02;21.57;;;5.70;;
8675;SDS011;4375;52.486;13.424;2023-11-21T08:40:28;20.37;;;6.20;;
8675;SDS011;4375;52.486;13.424;2023-11-21T08:42:54;22.97;;;5.83;;
8675;SDS011;4375;52.486;13.424;2023-11-21T08:45:21;26.43;;;6.73;;
8675;SDS011;4375;52.486;13.424;2023-11-21T08:47:47;26.17;;;6.63;;
8675;SDS011;4375;52.486;13.424;2023-11-21T08:50:13;26.17;;;6.83;;
8675;SDS011;4375;52.486;13.424;2023-11-21T08:52:39;26.97;;;6.83;;
8675;SDS011;4375;52.486;13.424;2023-11-21T08:55:06;23.53;;;6.30;;
8675;SDS011;4375;52.486;13.424;2023-11-21T08:57:37;25.87;;;7.13;;
8675;SDS011;4375;52.486;13.424;2023-11-21T09:00:04;26.73;;;7.47;;
8675;SDS011;4375;52.486;13.424;2023-11-21T09:02:36;22.53;;;6.40;;
8675;SDS011;4375;52.486;13.424;2023-11-21T09:05:02;27.47;;;8.20;;
8675;SDS011;4375;52.486;13.424;2023-11-21T09:07:29;24.17;;;6.30;;
8675;SDS011;4375;52.486;13.424;2023-11-21T09:09:55;32.43;;;8.23;;
8675;SDS011;4375;52.486;13.424;2023-11-21T09:12:21;28.00;;;7.97;;
8675;SDS011;4375;52.486;13.424;2023-11-21T09:14:47;25.50;;;8.37;;
8675;SDS011;4375;52.486;13.424;2023-11-21T09:17:12;26.40;;;7.77;;
8675;SDS011;4375;52.486;13.424;2023-11-21T09:19:39;29.97;;;7.23;;
8675;SDS011;4375;52.486;13.424;2023-11-21T09:22:05;27.77;;;7.63;;
8675;SDS011;4375;52.486;13.424;2023-11-21T09:24:32;30.40;;;7.57;;
8675;SDS011;4375;52.486;13.424;2023-11-21T09:26:58;30.90;;;7.90;;
8675;SDS011;4375;52.486;13.424;2023-11-21T09:29:25;29.90;;;8.17;;
8675;SDS011;4375;52.486;13.424;2023-11-21T09:31:54;28.50;;;8.37;;
8675;SDS011;4375;52.486;13.424;2023-11-21T09:34:20;28.60;;;7.83;;
8675;SDS011;4375;52.486;13.424;2023-11-21T09:36:46;28.80;;;8.00;;
8675;SDS011;4375;52.486;13.424;2023-11-21T09:39:13;29.40;;;7.03;;
8675;SDS011;4375;52.486;13.424;2023-11-21T09:41:43;26.07;;;7.20;;
8675;SDS011;4375;52.486;13.424;2023-11-21T09:44:20;21.80;;;5.90;;
8675;SDS011;4375;52.486;13.424;2023-11-21T09:46:55;22.10;;;6.10;;
8675;SDS011;4375;52.486;13.424;2023-11-21T09:49:24;26.33;;;5.50;;
8675;SDS011;4375;52.486;13.424;2023-11-21T09:51:53;19.27;;;4.20;;
8675;SDS011;4375;52.486;13.424;2023-11-21T09:54:23;20.87;;;4.10;;
8675;SDS011;4375;52.486;13.424;2023-11-21T09:56:50;21.80;;;4.93;;
8675;SDS011;4375;52.486;13.424;2023-11-21T09:59:15;30.23;;;9.30;;
8675;SDS011;4375;52.486;13.424;2023-11-21T10:01:44;19.80;;;4.33;;
8675;SDS011;4375;52.486;13.424;2023-11-21T10:04:11;18.40;;;3.90;;
8675;SDS011;4375;52.486;13.424;2023-11-21T10:06:40;18.53;;;3.73;;
8675;SDS011;4375;52.486;13.424;2023-11-21T10:09:13;22.10;;;4.40;;
8675;SDS011;4375;52.486;13.424;2023-11-21T10:11:41;24.43;;;4.90;;
8675;SDS011;4375;52.486;13.424;2023-11-21T10:14:10;21.33;;;3.70;;
8675;SDS011;4375;52.486;13.424;2023-11-21T10:16:40;18.50;;;4.17;;
8675;SDS011;4375;52.486;13.424;2023-11-21T10:19:09;29.17;;;3.80;;
8675;SDS011;4375;52.486;13.424;2023-11-21T10:21:35;31.17;;;5.47;;
8675;SDS011;4375;52.486;13.424;2023-11-21T10:24:03;17.70;;;3.70;;
8675;SDS011;4375;52.486;13.424;2023-11-21T10:26:29;21.80;;;3.40;;
8675;SDS011;4375;52.486;13.424;2023-11-21T10:29:00;17.10;;;3.73;;
8675;SDS011;4375;52.486;13.424;2023-11-21T10:31:32;20.60;;;4.20;;
8675;SDS011;4375;52.486;13.424;2023-11-21T10:34:14;17.13;;;4.07;;
8675;SDS011;4375;52.486;13.424;2023-11-21T10:36:44;16.33;;;3.60;;
8675;SDS011;4375;52.486;13.424;2023-11-21T10:39:14;15.83;;;3.80;;
8675;SDS011;4375;52.486;13.424;2023-11-21T10:41:47;17.07;;;3.63;;
8675;SDS011;4375;52.486;13.424;2023-11-21T10:44:14;17.77;;;3.83;;
8675;SDS011;4375;52.486;13.424;2023-11-21T10:46:45;19.67;;;4.10;;
8675;SDS011;4375;52.486;13.424;2023-11-21T10:49:19;38.07;;;14.10;;
8675;SDS011;4375;52.486;13.424;2023-11-21T10:51:45;17.27;;;4.10;;
8675;SDS011;4375;52.486;13.424;2023-11-21T10:54:11;18.20;;;4.07;;
8675;SDS011;4375;52.486;13.424;2023-11-21T10:56:37;17.00;;;3.63;;
8675;SDS011;4375;52.486;13.424;2023-11-21T10:59:08;21.33;;;4.47;;
8675;SDS011;4375;52.486;13.424;2023-11-21T11:01:40;21.63;;;5.70;;
8675;SDS011;4375;52.486;13.424;2023-11-21T11:04:09;20.00;;;4.30;;
8675;SDS011;4375;52.486;13.424;2023-11-21T11:06:41;18.97;;;4.97;;
8675;SDS011;4375;52.486;13.424;2023-11-21T11:09:09;18.33;;;4.40;;
8675;SDS011;4375;52.486;13.424;2023-11-21T11:11:38;21.90;;;5.20;;
8675;SDS011;4375;52.486;13.424;2023-11-21T11:14:10;19.90;;;5.90;;
8675;SDS011;4375;52.486;13.424;2023-11-21T11:16:38;19.70;;;5.87;;
8675;SDS011;4375;52.486;13.424;2023-11-21T11:19:08;19.63;;;5.07;;
8675;SDS011;4375;52.486;13.424;2023-11-21T11:27:01;19.33;;;5.00;;
8675;SDS011;4375;52.486;13.424;2023-11-21T11:32:22;22.30;;;5.20;;
8675;SDS011;4375;52.486;13.424;2023-11-21T11:35:04;24.30;;;5.60;;
8675;SDS011;4375;52.486;13.424;2023-11-21T11:37:39;19.10;;;5.00;;
8675;SDS011;4375;52.486;13.424;2023-11-21T11:40:08;16.67;;;4.40;;
8675;SDS011;4375;52.486;13.424;2023-11-21T11:42:36;21.47;;;5.87;;
8675;SDS011;4375;52.486;13.424;2023-11-21T11:45:02;20.47;;;5.80;;
8675;SDS011;4375;52.486;13.424;2023-11-21T11:47:43;18.23;;;5.53;;
8675;SDS011;4375;52.486;13.424;2023-11-21T11:50:09;18.30;;;4.67;;
8675;SDS011;4375;52.486;13.424;2023-11-21T11:52:48;16.70;;;4.00;;
8675;SDS011;4375;52.486;13.424;2023-11-21T11:55:20;16.73;;;4.13;;
8675;SDS011;4375;52.486;13.424;2023-11-21T11:57:48;18.53;;;5.33;;
8675;SDS011;4375;52.486;13.424;2023-11-21T12:00:21;20.07;;;5.87;;
8675;SDS011;4375;52.486;13.424;2023-11-21T12:03:00;18.93;;;5.03;;
8675;SDS011;4375;52.486;13.424;2023-11-21T12:05:30;17.83;;;5.10;;
8675;SDS011;4375;52.486;13.424;2023-11-21T12:07:59;19.73;;;4.83;;
8675;SDS011;4375;52.486;13.424;2023-11-21T12:10:30;23.37;;;6.20;;
8675;SDS011;4375;52.486;13.424;2023-11-21T12:12:58;19.63;;;6.10;;
8675;SDS011;4375;52.486;13.424;2023-11-21T12:15:35;18.20;;;5.10;;
8675;SDS011;4375;52.486;13.424;2023-11-21T12:18:03;20.27;;;6.17;;
8675;SDS011;4375;52.486;13.424;2023-11-21T12:20:30;23.77;;;7.97;;
8675;SDS011;4375;52.486;13.424;2023-11-21T12:22:57;24.13;;;6.90;;
8675;SDS011;4375;52.486;13.424;2023-11-21T12:25:25;24.23;;;6.17;;
8675;SDS011;4375;52.486;13.424;2023-11-21T12:27:57;20.27;;;5.87;;
8675;SDS011;4375;52.486;13.424;2023-11-21T12:30:25;20.07;;;5.13;;
8675;SDS011;4375;52.486;13.424;2023-11-21T12:33:00;18.03;;;4.37;;
8675;SDS011;4375;52.486;13.424;2023-11-21T12:35:28;20.03;;;5.10;;
8675;SDS011;4375;52.486;13.424;2023-11-21T12:37:56;17.90;;;4.60;;
8675;SDS011;4375;52.486;13.424;2023-11-21T12:40:25;19.67;;;5.73;;
8675;SDS011;4375;52.486;13.424;2023-11-21T12:42:52;18.40;;;4.67;;
8675;SDS011;4375;52.486;13.424;2023-11-21T12:45:20;17.63;;;3.30;;
8675;SDS011;4375;52.486;13.424;2023-11-21T12:50:29;22.73;;;5.23;;
8675;SDS011;4375;52.486;13.424;2023-11-21T12:53:02;21.33;;;4.03;;
8675;SDS011;4375;52.486;13.424;2023-11-21T12:55:30;18.13;;;4.10;;
8675;SDS011;4375;52.486;13.424;2023-11-21T12:57:57;18.40;;;4.60;;
8675;SDS011;4375;52.486;13.424;2023-11-21T13:00:34;17.33;;;4.20;;
8675;SDS011;4375;52.486;13.424;2023-11-21T13:03:02;16.33;;;3.97;;
8675;SDS011;4375;52.486;13.424;2023-11-21T13:05:31;16.40;;;3.83;;
8675;SDS011;4375;52.486;13.424;2023-11-21T13:08:01;17.03;;;4.13;;
8675;SDS011;4375;52.486;13.424;2023-11-21T13:10:32;19.00;;;4.90;;
8675;SDS011;4375;52.486;13.424;2023-11-21T13:13:02;15.93;;;3.90;;
8675;SDS011;4375;52.486;13.424;2023-11-21T13:15:46;17.70;;;4.60;;
8675;SDS011;4375;52.486;13.424;2023-11-21T13:18:13;18.10;;;4.10;;
8675;SDS011;4375;52.486;13.424;2023-11-21T13:20:39;22.80;;;5.30;;
8675;SDS011;4375;52.486;13.424;2023-11-21T13:23:09;18.73;;;5.00;;
8675;SDS011;4375;52.486;13.424;2023-11-21T13:25:39;17.77;;;4.60;;
8675;SDS011;4375;52.486;13.424;2023-11-21T13:28:07;17.90;;;4.33;;
8675;SDS011;4375;52.486;13.424;2023-11-21T13:30:37;18.13;;;4.23;;
8675;SDS011;4375;52.486;13.424;2023-11-21T13:33:05;18.50;;;4.30;;
8675;SDS011;4375;52.486;13.424;2023-11-21T13:35:33;22.97;;;6.83;;
8675;SDS011;4375;52.486;13.424;2023-11-21T13:38:13;20.57;;;5.80;;
8675;SDS011;4375;52.486;13.424;2023-11-21T13:40:46;19.40;;;5.40;;
8675;SDS011;4375;52.486;13.424;2023-11-21T13:43:14;20.43;;;5.87;;
8675;SDS011;4375;52.486;13.424;2023-11-21T13:45:43;26.20;;;6.77;;
8675;SDS011;4375;52.486;13.424;2023-11-21T13:48:11;23.80;;;6.03;;
8675;SDS011;4375;52.486;13.424;2023-11-21T13:50:44;23.03;;;6.90;;
8675;SDS011;4375;52.486;13.424;2023-11-21T13:53:20;21.93;;;7.10;;
8675;SDS011;4375;52.486;13.424;2023-11-21T13:55:49;25.50;;;8.23;;
8675;SDS011;4375;52.486;13.424;2023-11-21T13:58:17;25.07;;;7.30;;
8675;SDS011;4375;52.486;13.424;2023-11-21T14:00:47;20.70;;;6.37;;
8675;SDS011;4375;52.486;13.424;2023-11-21T14:03:27;19.20;;;5.97;;
8675;SDS011;4375;52.486;13.424;2023-11-21T14:06:07;23.80;;;7.43;;
8675;SDS011;4375;52.486;13.424;2023-11-21T14:08:39;23.47;;;6.00;;
8675;SDS011;4375;52.486;13.424;2023-11-21T14:11:06;22.00;;;7.00;;
8675;SDS011;4375;52.486;13.424;2023-11-21T14:13:32;19.77;;;6.37;;
8675;SDS011;4375;52.486;13.424;2023-11-21T14:15:58;23.90;;;7.90;;
8675;SDS011;4375;52.486;13.424;2023-11-21T14:18:26;27.03;;;8.30;;
8675;SDS011;4375;52.486;13.424;2023-11-21T14:21:00;24.43;;;8.27;;
8675;SDS011;4375;52.486;13.424;2023-11-21T14:23:26;25.37;;;9.10;;
8675;SDS011;4375;52.486;13.424;2023-11-21T14:25:53;23.90;;;9.30;;
8675;SDS011;4375;52.486;13.424;2023-11-21T14:28:19;27.43;;;10.70;;
8675;SDS011;4375;52.486;13.424;2023-11-21T14:30:45;27.17;;;10.03;;
8675;SDS011;4375;52.486;13.424;2023-11-21T14:33:12;30.60;;;10.47;;
8675;SDS011;4375;52.486;13.424;2023-11-21T14:35:38;28.30;;;11.90;;
8675;SDS011;4375;52.486;13.424;2023-11-21T14:38:04;30.73;;;12.57;;
8675;SDS011;4375;52.486;13.424;2023-11-21T14:40:33;30.93;;;13.40;;
8675;SDS011;4375;52.486;13.424;2023-11-21T14:43:01;36.10;;;13.30;;
8675;SDS011;4375;52.486;13.424;2023-11-21T14:45:28;34.80;;;14.00;;
8675;SDS011;4375;52.486;13.424;2023-11-21T14:47:54;41.47;;;13.20;;
8675;SDS011;4375;52.486;13.424;2023-11-21T14:50:29;33.28;;;13.85;;
8675;SDS011;4375;52.486;13.424;2023-11-21T14:53:04;38.63;;;13.67;;
8675;SDS011;4375;52.486;13.424;2023-11-21T14:55:32;36.13;;;15.33;;